Main page
METAR-TAF:

METAR-TAF

Airports :

South Texas Regional Airport at Hondo

Hondo, Texas, United States

latitude: 29-21-34N, longitude: 099-10-27W, elevation: 928 ft

Current weather observation

The report was made 22 minutes ago, at 21:51 UTC
Wind 5 mph from the South
Temperature 82°F
Humidity 45%
Pressure 29.77 in. Hg
Visibility: 10 miles
Clear sky

METAR: KHDO 172151Z AUTO 17004KT 10SM CLR 28/15 A2977 RMK AO2 SLP068 T02830150 $

Time: 16:13 (22:13 UTC)


TAF: missing

Weather observations and forecasts of more than 4000 airports (METAR and TAF reports).

The available stations are represented by yellow and red dots on the map.

Hover mouse over dot to see the name of the station.

Then click to see weather observations and forecasts.

To change the map : click on the green buttons with a black cross to zoom in, on the green button with a dash to zoom out, or on the green arrows for adjacent maps.


METAR-TAF: